Time;durP1;ratioP1;P1;durP2;ratioP2;P2;SDS_P1;SDS_P2;PMS_P1;PMS_P2;Temp;Humidity;BMP_temperature;BMP_pressure;BME280_temperature;BME280_humidity;BME280_pressure;Samples;Min_cycle;Max_cycle;Signal;HPM_P1;HPM_P2
2022/10/03 00:02:07;;;;;;;0.90;0.50;;;;;;;8.16;100.00;99357.36;100560;1341;24495;-37
2022/10/03 00:04:40;;;;;;;4.90;1.50;;;;;;;8.21;100.00;99355.49;100589;1331;22800;-34
2022/10/03 00:07:11;;;;;;;2.20;1.10;;;;;;;8.15;100.00;99355.29;100511;1340;22738;-31
2022/10/03 00:09:36;;;;;;;30.50;2.50;;;;;;;8.21;100.00;99360.13;100552;1341;24326;-32
2022/10/03 00:12:09;;;;;;;3.30;1.40;;;;;;;8.13;100.00;99360.73;100460;1341;24350;-32
2022/10/03 00:14:40;;;;;;;1.70;1.10;;;;;;;8.19;100.00;99362.02;100598;1336;22509;-37
2022/10/03 00:17:28;;;;;;;3.60;1.90;;;;;;;8.19;100.00;99355.73;100645;1341;22847;-31
2022/10/03 00:20:01;;;;;;;3.80;1.40;;;;;;;8.16;100.00;99354.08;100608;1341;24387;-32
2022/10/03 00:22:33;;;;;;;6.40;1.70;;;;;;;8.17;100.00;99355.61;100508;1341;22561;-36
2022/10/03 00:25:05;;;;;;;3.50;1.10;;;;;;;8.20;100.00;99348.75;100578;1341;22509;-36
2022/10/03 00:27:33;;;;;;;5.00;0.90;;;;;;;8.32;100.00;99356.63;100584;1326;22898;-32
2022/10/03 00:30:01;;;;;;;4.30;1.80;;;;;;;8.42;100.00;99359.14;100564;1332;22519;-36
2022/10/03 00:32:34;;;;;;;9.50;1.60;;;;;;;8.50;100.00;99360.42;100526;1341;23217;-33
2022/10/03 00:35:11;;;;;;;1.40;1.20;;;;;;;8.58;100.00;99343.10;100616;1340;22540;-37
2022/10/03 00:37:37;;;;;;;4.90;1.90;;;;;;;8.49;100.00;99349.73;100617;1341;22515;-33
2022/10/03 00:40:14;;;;;;;4.30;1.00;;;;;;;8.49;100.00;99352.70;100482;1341;24488;-34
2022/10/03 00:42:47;;;;;;;1.60;0.80;;;;;;;8.51;100.00;99356.20;100563;1341;24366;-34
2022/10/03 00:45:16;;;;;;;2.30;1.30;;;;;;;8.51;100.00;99357.34;100535;1333;24594;-34
2022/10/03 00:47:49;;;;;;;10.90;2.40;;;;;;;8.55;100.00;99352.79;100501;1341;24603;-37
2022/10/03 00:50:18;;;;;;;1.60;1.10;;;;;;;8.54;100.00;99356.89;100580;1327;24347;-37
2022/10/03 00:52:51;;;;;;;2.40;0.80;;;;;;;8.56;100.00;99360.30;100633;1341;22765;-34
2022/10/03 00:55:20;;;;;;;1.80;1.00;;;;;;;8.59;100.00;99357.02;100644;1341;22506;-34
2022/10/03 00:58:11;;;;;;;2.00;1.10;;;;;;;8.71;100.00;99347.91;100606;1341;25293;-38
2022/10/03 01:03:50;;;;;;;5.80;1.70;;;;;;;8.76;100.00;99338.00;100143;1343;544860;-33
2022/10/03 01:06:25;;;;;;;5.60;1.20;;;;;;;8.80;100.00;99341.70;100168;1342;25961;-37
2022/10/03 01:08:57;;;;;;;1.40;0.70;;;;;;;8.83;100.00;99334.13;100339;1347;24393;-37
2022/10/03 01:11:43;;;;;;;7.10;1.00;;;;;;;8.73;100.00;99339.77;100331;1345;24416;-36
2022/10/03 01:14:16;;;;;;;2.80;0.80;;;;;;;8.80;100.00;99333.27;100189;1341;24509;-33
2022/10/03 01:16:45;;;;;;;1.60;1.20;;;;;;;8.84;100.00;99328.05;100035;1344;308476;-32
2022/10/03 01:19:20;;;;;;;5.40;1.30;;;;;;;8.85;100.00;99319.77;100468;1339;24495;-36
2022/10/03 01:21:48;;;;;;;3.40;1.10;;;;;;;8.88;100.00;99319.77;100391;1344;24386;-36
2022/10/03 01:24:22;;;;;;;1.00;0.60;;;;;;;8.98;100.00;99318.98;100374;1344;22768;-32
2022/10/03 01:26:52;;;;;;;0.60;0.30;;;;;;;9.00;100.00;99317.41;100483;1344;22508;-38
2022/10/03 01:31:51;;;;;;;5.50;0.80;;;;;;;9.04;100.00;99307.80;100334;1344;22698;-36
2022/10/03 01:34:24;;;;;;;1.40;0.80;;;;;;;9.04;100.00;99304.02;100360;1334;23137;-37
2022/10/03 01:36:53;;;;;;;24.20;2.10;;;;;;;8.96;100.00;99301.98;100409;1344;22550;-36
2022/10/03 01:39:25;;;;;;;10.60;1.60;;;;;;;8.99;100.00;99306.14;100370;1344;25250;-33
2022/10/03 01:41:59;;;;;;;2.80;1.80;;;;;;;9.04;100.00;99301.41;100315;1329;22766;-36
2022/10/03 01:44:31;;;;;;;5.00;1.60;;;;;;;9.04;100.00;99297.26;100391;1341;22463;-34
2022/10/03 01:47:05;;;;;;;5.30;1.10;;;;;;;9.07;100.00;99295.10;100385;1344;23081;-33
2022/10/03 01:49:33;;;;;;;;;;;;;;;9.07;100.00;99290.56;100340;1343;25362;-33
2022/10/03 01:52:09;;;;;;;1.70;0.80;;;;;;;9.06;100.00;99294.59;100487;1342;22778;-36
2022/10/03 01:54:41;;;;;;;2.20;1.00;;;;;;;9.14;100.00;99281.56;100429;1343;22765;-36
2022/10/03 01:57:14;;;;;;;5.60;0.80;;;;;;;9.22;100.00;99281.49;100564;1342;22938;-34
2022/10/03 01:59:46;;;;;;;2.00;1.00;;;;;;;9.25;100.00;99272.28;100491;1336;23244;-36
2022/10/03 02:02:19;;;;;;;5.00;1.10;;;;;;;9.25;100.00;99264.83;100471;1328;24387;-37
2022/10/03 02:04:52;;;;;;;12.00;4.30;;;;;;;9.29;100.00;99260.23;100434;1342;22895;-36
2022/10/03 02:07:21;;;;;;;3.80;1.10;;;;;;;9.34;100.00;99254.84;100440;1343;25314;-36
2022/10/03 02:09:50;;;;;;;1.40;0.70;;;;;;;9.24;100.00;99258.67;100457;1342;22772;-36
2022/10/03 02:12:19;;;;;;;6.30;1.20;;;;;;;9.14;100.00;99266.73;100371;1328;25858;-35
2022/10/03 02:14:51;;;;;;;4.30;1.10;;;;;;;9.22;100.00;99267.85;100306;1342;23107;-33
2022/10/03 02:17:21;;;;;;;3.10;0.50;;;;;;;9.28;100.00;99265.14;100326;1343;23112;-36
2022/10/03 02:19:56;;;;;;;4.30;1.50;;;;;;;9.29;100.00;99265.44;100440;1339;24386;-33
2022/10/03 02:22:28;;;;;;;7.30;1.00;;;;;;;9.41;100.00;99257.02;100388;1344;23883;-36
2022/10/03 02:25:04;;;;;;;4.50;1.00;;;;;;;9.35;100.00;99251.19;100422;1344;24232;-33
2022/10/03 02:27:37;;;;;;;4.20;1.30;;;;;;;9.39;100.00;99239.11;100465;1336;23129;-36
2022/10/03 02:30:10;;;;;;;2.70;1.40;;;;;;;9.26;100.00;99250.07;100537;1335;22555;-33
2022/10/03 02:32:39;;;;;;;10.60;1.50;;;;;;;9.32;100.00;99238.38;100393;1344;24382;-36
2022/10/03 02:35:13;;;;;;;4.60;1.50;;;;;;;9.28;100.00;99250.58;100557;1329;22900;-33
2022/10/03 02:37:47;;;;;;;3.60;1.40;;;;;;;9.27;100.00;99247.77;100320;1344;22894;-33
2022/10/03 02:40:20;;;;;;;9.90;2.60;;;;;;;9.26;100.00;99248.84;100442;1344;24313;-36
2022/10/03 02:42:50;;;;;;;5.70;1.20;;;;;;;9.43;100.00;99244.20;100404;1339;24345;-36
2022/10/03 02:45:25;;;;;;;4.60;1.20;;;;;;;9.47;100.00;99235.13;100419;1336;22500;-33
2022/10/03 02:47:57;;;;;;;8.20;1.40;;;;;;;9.36;100.00;99236.07;100464;1344;22516;-36
2022/10/03 02:50:31;;;;;;;0.60;0.60;;;;;;;9.36;100.00;99237.89;100405;1343;24390;-37
2022/10/03 02:53:03;;;;;;;2.80;0.90;;;;;;;9.38;100.00;99244.52;100522;1344;24223;-37
2022/10/03 02:55:29;;;;;;;4.30;1.70;;;;;;;9.36;100.00;99247.07;100439;1344;22652;-33
2022/10/03 02:58:04;;;;;;;10.60;1.40;;;;;;;9.36;100.00;99247.89;100421;1343;23221;-32
2022/10/03 03:00:35;;;;;;;4.90;2.00;;;;;;;9.36;100.00;99251.15;100451;1343;23221;-33
2022/10/03 03:03:04;;;;;;;6.50;1.00;;;;;;;9.48;100.00;99250.15;100446;1343;24299;-34
2022/10/03 03:05:56;;;;;;;4.90;1.30;;;;;;;9.35;100.00;99253.38;100479;1342;22929;-32
2022/10/03 03:08:25;;;;;;;7.00;1.80;;;;;;;9.29;100.00;99262.88;100363;1334;25789;-32
2022/10/03 03:10:53;;;;;;;8.50;1.90;;;;;;;9.32;100.00;99266.81;100510;1344;23643;-35
2022/10/03 03:13:26;;;;;;;2.20;1.40;;;;;;;9.27;100.00;99262.58;100469;1336;22991;-35
2022/10/03 03:15:59;;;;;;;2.60;1.20;;;;;;;9.31;100.00;99262.78;100373;1342;22687;-33
2022/10/03 03:18:38;;;;;;;0.90;0.70;;;;;;;9.25;100.00;99258.69;100497;1342;22907;-34
2022/10/03 03:21:10;;;;;;;6.50;1.70;;;;;;;9.34;100.00;99261.28;100468;1336;23369;-34
2022/10/03 03:23:45;;;;;;;4.70;0.90;;;;;;;9.41;100.00;99262.91;100458;1343;25404;-32
2022/10/03 03:26:19;;;;;;;7.20;1.20;;;;;;;9.36;100.00;99252.47;100488;1343;23106;-35
2022/10/03 03:28:48;;;;;;;40.70;2.50;;;;;;;9.37;100.00;99256.40;100454;1344;23099;-36
2022/10/03 03:31:17;;;;;;;19.10;1.60;;;;;;;9.39;100.00;99235.39;100507;1339;23118;-32
2022/10/03 03:33:52;;;;;;;4.60;1.10;;;;;;;9.38;100.00;99250.23;100474;1336;23110;-37
2022/10/03 03:36:22;;;;;;;4.20;1.10;;;;;;;9.30;100.00;99253.20;100324;1342;22495;-33
2022/10/03 03:38:55;;;;;;;4.90;1.30;;;;;;;9.19;100.00;99255.81;100457;1336;23242;-35
2022/10/03 03:41:50;;;;;;;3.40;1.20;;;;;;;9.12;100.00;99267.21;100472;1344;22498;-35
2022/10/03 03:44:19;;;;;;;9.20;1.70;;;;;;;9.21;100.00;99266.81;100379;1336;22907;-33
2022/10/03 03:46:53;;;;;;;1.90;1.20;;;;;;;9.17;100.00;99260.00;100429;1339;22713;-33
2022/10/03 03:49:29;;;;;;;10.50;0.80;;;;;;;9.15;100.00;99265.34;100403;1343;25395;-36
2022/10/03 03:52:02;;;;;;;17.60;1.70;;;;;;;9.20;100.00;99270.66;100339;1342;24384;-36
2022/10/03 03:54:31;;;;;;;2.40;0.70;;;;;;;9.18;100.00;99263.63;100483;1344;22507;-34
2022/10/03 03:57:04;;;;;;;3.40;0.90;;;;;;;9.21;100.00;99263.42;100457;1343;22754;-33
2022/10/03 03:59:53;;;;;;;3.10;1.40;;;;;;;9.25;100.00;99257.86;100482;1344;25646;-37
2022/10/03 04:02:39;;;;;;;3.20;1.20;;;;;;;9.20;100.00;99262.46;100461;1336;23361;-34
2022/10/03 04:05:11;;;;;;;8.50;1.50;;;;;;;9.25;100.00;99259.66;100666;1341;25349;-31
2022/10/03 04:07:48;;;;;;;4.40;1.40;;;;;;;9.29;100.00;99261.72;100657;1333;24372;-35
2022/10/03 04:10:20;;;;;;;3.50;0.80;;;;;;;9.28;100.00;99259.58;100625;1339;22848;-33
2022/10/03 04:12:54;;;;;;;0.30;0.30;;;;;;;9.30;100.00;99251.59;100666;1333;24383;-32
2022/10/03 04:15:27;;;;;;;10.70;1.00;;;;;;;9.25;100.00;99255.67;100647;1341;22751;-36
2022/10/03 04:20:37;;;;;;;7.10;1.30;;;;;;;9.25;100.00;99258.77;100646;1340;23122;-32
2022/10/03 04:23:11;;;;;;;6.60;0.90;;;;;;;9.25;100.00;99254.35;100684;1339;22886;-35
2022/10/03 04:25:42;;;;;;;1.60;0.60;;;;;;;9.25;100.00;99244.98;100676;1341;22754;-32
2022/10/03 04:28:10;;;;;;;2.20;1.00;;;;;;;9.29;100.00;99247.83;100669;1341;23221;-33
2022/10/03 04:30:45;;;;;;;3.10;0.80;;;;;;;9.23;100.00;99245.13;100738;1332;24354;-36
2022/10/03 04:33:18;;;;;;;1.30;0.50;;;;;;;9.28;100.00;99239.24;100652;1333;22764;-33
2022/10/03 04:35:51;;;;;;;2.60;0.60;;;;;;;9.17;100.00;99238.11;100665;1341;22503;-32
2022/10/03 04:38:20;;;;;;;;;;;;;;;9.29;100.00;99227.18;100626;1340;22488;-32
2022/10/03 04:40:50;;;;;;;22.20;1.20;;;;;;;9.23;100.00;99235.95;100715;1337;22898;-35
2022/10/03 04:43:23;;;;;;;3.60;1.40;;;;;;;9.21;100.00;99236.23;100692;1341;23117;-36
2022/10/03 04:45:50;;;;;;;1.60;0.50;;;;;;;9.27;100.00;99235.24;100661;1341;22928;-35
2022/10/03 04:48:22;;;;;;;4.50;0.70;;;;;;;9.23;100.00;99238.63;100624;1341;25245;-32
2022/10/03 04:50:56;;;;;;;9.30;0.90;;;;;;;9.23;100.00;99235.95;100623;1325;22539;-35
2022/10/03 04:53:33;;;;;;;4.90;1.20;;;;;;;9.32;100.00;99227.38;100646;1333;22547;-32
2022/10/03 04:56:03;;;;;;;4.50;1.90;;;;;;;9.37;100.00;99215.28;100679;1316;22514;-35
2022/10/03 04:58:36;;;;;;;1.70;0.50;;;;;;;9.37;100.00;99222.23;100654;1326;22885;-32
2022/10/03 05:01:11;;;;;;;1.80;1.10;;;;;;;9.29;100.00;99224.25;100649;1341;23927;-37
2022/10/03 05:03:43;;;;;;;15.90;0.80;;;;;;;9.14;100.00;99227.69;100698;1341;25957;-35
2022/10/03 05:06:12;;;;;;;3.80;1.80;;;;;;;9.13;100.00;99235.40;100669;1341;25277;-36
2022/10/03 05:08:41;;;;;;;10.00;1.90;;;;;;;9.06;100.00;99240.52;100650;1329;23118;-36
2022/10/03 05:11:12;;;;;;;3.00;0.90;;;;;;;9.05;100.00;99246.74;100663;1341;22707;-36
2022/10/03 05:13:41;;;;;;;11.20;1.40;;;;;;;9.13;100.00;99239.77;100706;1341;22727;-32
2022/10/03 05:16:07;;;;;;;3.30;1.00;;;;;;;9.12;100.00;99245.74;100470;1340;23211;-34
2022/10/03 05:18:38;;;;;;;0.00;0.00;;;;;;;9.07;100.00;99244.61;100601;1333;22512;-33
2022/10/03 05:21:08;;;;;;;4.80;0.70;;;;;;;9.02;100.00;99248.02;100534;1341;23104;-36
2022/10/03 05:23:44;;;;;;;6.80;1.50;;;;;;;9.11;100.00;99243.16;100450;1344;24384;-36
2022/10/03 05:26:18;;;;;;;3.60;1.10;;;;;;;9.14;100.00;99240.89;100589;1341;22621;-39
2022/10/03 05:28:49;;;;;;;;;;;;;;;9.14;100.00;99236.52;100661;1339;22905;-35
2022/10/03 05:31:24;;;;;;;6.10;1.00;;;;;;;9.12;100.00;99238.03;100643;1339;22750;-32
2022/10/03 05:33:58;;;;;;;4.30;1.10;;;;;;;9.07;100.00;99243.70;100634;1341;22513;-35
2022/10/03 05:36:28;;;;;;;10.50;1.30;;;;;;;9.09;100.00;99246.27;100470;1335;25358;-33
2022/10/03 05:39:01;;;;;;;13.90;1.70;;;;;;;9.18;100.00;99238.90;100649;1341;22802;-33
2022/10/03 05:41:30;;;;;;;11.40;0.90;;;;;;;9.22;100.00;99242.50;100687;1341;22635;-32
2022/10/03 05:44:02;;;;;;;6.80;1.10;;;;;;;9.14;100.00;99242.70;100658;1332;24489;-36
2022/10/03 05:46:31;;;;;;;7.10;0.90;;;;;;;9.11;100.00;99244.24;100604;1341;22511;-32
2022/10/03 05:49:02;;;;;;;5.20;0.80;;;;;;;9.20;100.00;99254.25;100577;1341;23107;-35
2022/10/03 05:51:38;;;;;;;4.70;1.00;;;;;;;9.23;100.00;99248.07;100660;1341;22645;-33
2022/10/03 05:54:07;;;;;;;3.70;1.50;;;;;;;9.25;100.00;99252.33;100637;1341;24381;-35
2022/10/03 05:56:40;;;;;;;5.70;1.10;;;;;;;9.17;100.00;99255.27;100646;1339;22977;-32
2022/10/03 05:59:15;;;;;;;1.50;0.50;;;;;;;9.18;100.00;99259.39;100593;1333;25228;-31
2022/10/03 06:01:51;;;;;;;13.50;1.20;;;;;;;9.21;100.00;99263.26;100668;1339;22807;-32
2022/10/03 06:04:20;;;;;;;14.00;0.90;;;;;;;9.31;100.00;99256.92;100518;1341;23115;-35
2022/10/03 06:06:52;;;;;;;5.00;1.60;;;;;;;9.32;100.00;99263.45;100655;1333;22887;-36
2022/10/03 06:09:31;;;;;;;8.20;0.70;;;;;;;9.34;100.00;99252.95;100653;1333;25224;-33
2022/10/03 06:12:01;;;;;;;0.10;0.10;;;;;;;9.42;100.00;99265.02;100682;1341;25419;-33
2022/10/03 06:14:33;;;;;;;4.30;0.60;;;;;;;9.30;100.00;99266.69;100657;1341;23144;-35
2022/10/03 06:17:03;;;;;;;16.70;1.00;;;;;;;9.29;100.00;99268.45;100672;1341;22511;-32
2022/10/03 06:19:35;;;;;;;5.20;1.10;;;;;;;9.25;100.00;99272.53;100651;1341;24357;-36
2022/10/03 06:22:13;;;;;;;8.40;0.80;;;;;;;9.28;100.00;99268.40;100675;1339;22975;-36
2022/10/03 06:24:46;;;;;;;6.40;0.90;;;;;;;9.29;100.00;99261.27;100664;1341;22514;-33
2022/10/03 06:27:18;;;;;;;2.20;0.70;;;;;;;9.36;100.00;99266.52;100645;1320;22517;-36
2022/10/03 06:29:51;;;;;;;0.60;0.30;;;;;;;9.32;100.00;99265.17;100650;1336;25315;-35
2022/10/03 06:32:26;;;;;;;11.60;1.20;;;;;;;9.39;100.00;99264.75;100683;1341;22862;-37
2022/10/03 06:34:59;;;;;;;6.40;1.10;;;;;;;9.37;100.00;99265.17;100474;1331;24526;-36
2022/10/03 06:37:28;;;;;;;4.00;1.20;;;;;;;9.48;100.00;99257.85;100667;1322;24411;-36
2022/10/03 06:40:04;;;;;;;2.40;0.60;;;;;;;9.44;100.00;99264.23;100639;1333;22869;-34
2022/10/03 06:42:44;;;;;;;5.90;0.70;;;;;;;9.50;100.00;99259.54;100534;1341;24328;-37
2022/10/03 06:45:15;;;;;;;1.60;0.90;;;;;;;9.52;100.00;99265.23;100632;1341;24837;-37
2022/10/03 06:47:48;;;;;;;0.60;0.40;;;;;;;9.59;100.00;99259.29;100695;1333;25418;-33
2022/10/03 06:50:15;;;;;;;2.90;0.70;;;;;;;9.51;100.00;99264.77;100694;1341;25234;-33
2022/10/03 06:52:48;;;;;;;3.20;0.80;;;;;;;9.64;100.00;99258.33;100625;1341;22754;-35
2022/10/03 06:55:20;;;;;;;2.90;0.60;;;;;;;9.55;100.00;99266.95;100662;1341;24546;-33
2022/10/03 06:58:01;;;;;;;4.90;0.60;;;;;;;9.55;100.00;99267.00;100629;1333;24351;-33
2022/10/03 07:00:44;;;;;;;1.30;0.60;;;;;;;9.53;100.00;99270.27;100619;1330;22749;-33
2022/10/03 07:03:36;;;;;;;1.70;0.40;;;;;;;9.39;100.00;99276.54;100653;1341;22511;-36
2022/10/03 07:06:21;;;;;;;9.70;1.00;;;;;;;9.19;100.00;99290.79;100620;1341;23889;-36
2022/10/03 07:08:54;;;;;;;7.50;0.80;;;;;;;9.15;100.00;99298.98;100615;1341;23114;-37
2022/10/03 07:11:29;;;;;;;5.90;0.70;;;;;;;9.16;100.00;99298.53;100665;1333;25581;-33
2022/10/03 07:14:09;;;;;;;3.70;0.40;;;;;;;9.11;100.00;99307.34;100696;1341;22545;-36
2022/10/03 07:17:00;;;;;;;17.80;0.40;;;;;;;9.12;100.00;99311.23;100518;1341;22761;-36
2022/10/03 07:19:29;;;;;;;5.90;1.50;;;;;;;9.29;100.00;99302.88;100630;1333;24336;-36
2022/10/03 07:22:02;;;;;;;10.30;1.20;;;;;;;9.37;100.00;99295.52;100677;1341;22741;-43
2022/10/03 07:24:39;;;;;;;3.90;1.00;;;;;;;9.34;100.00;99304.16;100725;1341;24438;-33
2022/10/03 07:27:14;;;;;;;4.10;0.70;;;;;;;9.19;100.00;99321.20;100676;1341;24312;-36
2022/10/03 07:29:49;;;;;;;3.80;1.10;;;;;;;9.10;100.00;99329.55;100666;1340;23093;-36
2022/10/03 07:32:18;;;;;;;1.30;0.20;;;;;;;9.11;100.00;99336.56;100640;1341;23070;-37
2022/10/03 07:34:46;;;;;;;3.90;1.10;;;;;;;9.11;100.00;99343.77;100654;1340;22510;-34
2022/10/03 07:40:19;;;;;;;7.80;1.10;;;;;;;9.25;100.00;99353.05;100602;1341;24331;-33
2022/10/03 07:42:53;;;;;;;3.80;0.50;;;;;;;9.23;100.00;99349.06;100633;1339;22738;-33
2022/10/03 07:45:29;;;;;;;15.00;1.40;;;;;;;9.17;100.00;99353.41;100624;1340;22887;-32
2022/10/03 07:48:03;;;;;;;3.70;0.80;;;;;;;9.16;100.00;99359.79;100681;1333;22775;-33
2022/10/03 07:50:35;;;;;;;2.10;0.50;;;;;;;9.17;100.00;99371.74;100666;1340;24303;-33
2022/10/03 07:53:09;;;;;;;4.10;0.80;;;;;;;9.16;100.00;99369.20;100665;1341;22752;-37
2022/10/03 07:55:35;;;;;;;4.30;0.60;;;;;;;9.20;100.00;99377.80;100508;1341;24517;-34
2022/10/03 07:58:06;;;;;;;0.30;0.20;;;;;;;9.29;100.00;99373.84;100638;1339;22888;-34
2022/10/03 08:00:49;;;;;;;3.40;0.80;;;;;;;9.28;100.00;99369.37;100687;1341;25320;-33
2022/10/03 08:03:31;;;;;;;6.60;0.80;;;;;;;9.24;100.00;99386.10;100656;1341;22598;-34
2022/10/03 08:06:23;;;;;;;8.60;0.90;;;;;;;9.22;100.00;99393.79;100638;1337;25902;-34
2022/10/03 08:09:12;;;;;;;3.70;0.90;;;;;;;9.36;100.00;99400.34;100670;1333;23106;-34
2022/10/03 08:11:45;;;;;;;5.20;1.20;;;;;;;9.48;100.00;99402.14;100649;1340;24524;-37
2022/10/03 08:14:18;;;;;;;12.10;3.50;;;;;;;9.61;100.00;99393.40;100645;1340;24499;-37
2022/10/03 08:16:51;;;;;;;4.40;0.40;;;;;;;9.69;100.00;99401.41;100557;1341;25353;-37
2022/10/03 08:19:22;;;;;;;0.70;0.50;;;;;;;9.69;100.00;99395.17;100704;1335;23074;-37
2022/10/03 08:21:49;;;;;;;1.70;0.20;;;;;;;9.52;100.00;99394.09;100696;1341;23112;-35
2022/10/03 08:24:16;;;;;;;1.10;0.50;;;;;;;9.46;100.00;99408.11;100650;1341;23209;-36
2022/10/03 08:26:47;;;;;;;2.70;0.90;;;;;;;9.46;100.00;99407.18;100732;1341;22532;-37
2022/10/03 08:29:18;;;;;;;2.10;1.00;;;;;;;9.47;100.00;99417.58;100646;1328;22880;-38
2022/10/03 08:31:51;;;;;;;4.40;0.80;;;;;;;9.45;100.00;99415.33;100664;1341;24382;-34
2022/10/03 08:34:20;;;;;;;1.40;0.60;;;;;;;9.52;100.00;99419.12;100654;1340;22750;-34
2022/10/03 08:37:11;;;;;;;2.10;0.60;;;;;;;9.55;100.00;99418.54;100645;1333;22823;-38
2022/10/03 08:39:55;;;;;;;3.20;0.90;;;;;;;9.55;100.00;99413.54;100610;1333;23067;-32
2022/10/03 08:42:34;;;;;;;0.90;0.70;;;;;;;9.58;100.00;99412.27;100377;1328;24487;-32
2022/10/03 08:45:06;;;;;;;2.60;0.60;;;;;;;9.63;100.00;99398.45;100628;1333;24506;-35
2022/10/03 08:47:38;;;;;;;1.50;0.10;;;;;;;9.73;100.00;99393.25;100668;1339;24834;-36
2022/10/03 08:50:11;;;;;;;0.80;0.60;;;;;;;9.80;100.00;99384.19;100597;1341;22546;-34
2022/10/03 08:52:40;;;;;;;2.10;0.80;;;;;;;9.96;100.00;99358.57;100558;1341;26500;-34
2022/10/03 08:55:16;;;;;;;0.50;0.20;;;;;;;10.28;100.00;99353.59;100536;1336;24356;-37
2022/10/03 08:57:50;;;;;;;1.80;0.60;;;;;;;10.35;100.00;99327.31;100507;1336;24375;-36
2022/10/03 09:00:21;;;;;;;1.30;0.60;;;;;;;10.70;100.00;99317.23;100632;1333;23128;-34
2022/10/03 09:02:52;;;;;;;2.10;0.40;;;;;;;11.16;100.00;99312.56;100670;1334;22882;-37
2022/10/03 09:05:29;;;;;;;1.90;0.30;;;;;;;11.19;100.00;99297.19;100633;1325;22575;-37
2022/10/03 09:08:01;;;;;;;1.40;0.20;;;;;;;11.11;100.00;99311.55;100664;1341;23928;-35
2022/10/03 09:10:31;;;;;;;2.00;0.40;;;;;;;11.11;100.00;99314.61;100513;1342;22555;-34
2022/10/03 09:12:58;;;;;;;3.80;0.90;;;;;;;11.02;100.00;99313.71;100650;1331;23114;-38
2022/10/03 09:15:33;;;;;;;4.90;0.40;;;;;;;11.04;100.00;99314.05;100679;1341;23195;-37
2022/10/03 09:18:04;;;;;;;3.60;0.80;;;;;;;10.94;100.00;99316.23;100017;1334;695371;-37
2022/10/03 09:20:33;;;;;;;1.50;0.40;;;;;;;10.95;100.00;99312.04;100674;1341;23087;-37
2022/10/03 09:23:04;;;;;;;1.20;0.10;;;;;;;10.91;100.00;99316.65;100623;1327;23109;-35
2022/10/03 09:25:33;;;;;;;0.70;0.20;;;;;;;10.83;100.00;99319.51;100524;1341;23889;-36
2022/10/03 09:28:11;;;;;;;0.70;0.30;;;;;;;10.83;100.00;99325.09;100690;1341;25398;-33
2022/10/03 09:30:39;;;;;;;2.90;0.70;;;;;;;10.76;100.00;99318.03;100505;1336;23156;-33
2022/10/03 09:33:15;;;;;;;3.40;0.60;;;;;;;10.74;100.00;99315.52;100672;1333;22738;-41
2022/10/03 09:35:48;;;;;;;1.20;0.50;;;;;;;10.69;100.00;99327.20;100584;1341;22494;-36
2022/10/03 09:38:37;;;;;;;7.70;0.90;;;;;;;10.73;100.00;99321.62;100673;1341;24341;-35
2022/10/03 09:41:07;;;;;;;0.20;0.10;;;;;;;10.85;100.00;99319.96;100647;1338;24436;-35
2022/10/03 09:43:40;;;;;;;0.90;0.40;;;;;;;10.86;100.00;99321.64;100678;1341;24845;-33
2022/10/03 09:46:16;;;;;;;1.40;0.60;;;;;;;10.72;100.00;99335.74;100683;1341;22510;-36
2022/10/03 09:48:43;;;;;;;0.80;0.20;;;;;;;10.61;100.00;99331.30;100670;1341;23270;-33
2022/10/03 09:51:27;;;;;;;2.20;0.60;;;;;;;10.58;100.00;99331.13;100596;1341;22597;-35
2022/10/03 09:54:17;;;;;;;0.60;0.40;;;;;;;10.52;100.00;99337.16;100670;1340;22614;-37
2022/10/03 09:56:48;;;;;;;2.50;0.40;;;;;;;10.54;100.00;99338.54;100665;1333;22720;-37
2022/10/03 09:59:21;;;;;;;4.30;0.50;;;;;;;10.55;100.00;99339.29;100688;1333;24379;-34
2022/10/03 10:01:51;;;;;;;1.10;0.30;;;;;;;10.55;100.00;99338.13;100675;1341;25352;-37
2022/10/03 10:04:24;;;;;;;9.50;0.90;;;;;;;10.53;100.00;99344.72;100638;1341;24387;-37
2022/10/03 10:07:09;;;;;;;2.50;0.70;;;;;;;10.51;100.00;99345.65;100632;1341;22513;-32
2022/10/03 10:09:39;;;;;;;3.80;0.90;;;;;;;10.55;100.00;99348.70;100649;1326;23093;-35
2022/10/03 10:12:12;;;;;;;3.80;0.50;;;;;;;10.57;100.00;99354.88;100695;1341;23206;-36
2022/10/03 10:14:44;;;;;;;3.70;0.70;;;;;;;10.57;100.00;99358.55;100668;1341;25572;-35
2022/10/03 10:17:26;;;;;;;3.00;0.40;;;;;;;10.58;100.00;99356.20;100608;1341;23102;-32
2022/10/03 10:19:58;;;;;;;1.00;0.20;;;;;;;10.46;100.00;99366.05;100659;1341;25369;-32
2022/10/03 10:22:39;;;;;;;2.70;0.40;;;;;;;10.32;100.00;99369.08;100653;1341;25691;-34
2022/10/03 10:25:17;;;;;;;0.90;0.40;;;;;;;10.25;100.00;99361.13;100618;1340;22890;-33
2022/10/03 10:27:54;;;;;;;0.20;0.20;;;;;;;10.25;100.00;99379.16;100608;1335;24507;-34
2022/10/03 10:30:23;;;;;;;7.80;1.40;;;;;;;10.10;100.00;99391.48;100619;1340;23624;-34
2022/10/03 10:32:52;;;;;;;0.50;0.40;;;;;;;10.16;100.00;99401.93;100612;1341;22876;-36
2022/10/03 10:35:25;;;;;;;0.30;0.20;;;;;;;10.19;100.00;99399.27;100670;1339;22759;-37
2022/10/03 10:38:01;;;;;;;3.30;0.60;;;;;;;10.16;100.00;99401.80;100669;1341;24373;-37
2022/10/03 10:40:35;;;;;;;2.10;0.80;;;;;;;10.15;100.00;99416.11;100657;1341;25312;-36
2022/10/03 10:43:05;;;;;;;;;;;;;;;10.14;100.00;99418.67;100648;1339;25305;-32
2022/10/03 10:45:37;;;;;;;0.60;0.40;;;;;;;10.15;100.00;99424.26;100702;1339;22500;-36
2022/10/03 10:48:10;;;;;;;2.40;0.60;;;;;;;10.17;100.00;99429.09;100695;1333;23108;-36
2022/10/03 10:50:39;;;;;;;1.80;0.50;;;;;;;10.00;100.00;99438.77;100654;1331;25294;-31
2022/10/03 10:53:08;;;;;;;1.70;0.60;;;;;;;9.93;100.00;99448.02;100624;1333;23254;-36
2022/10/03 10:55:38;;;;;;;1.80;0.70;;;;;;;9.81;100.00;99471.63;100678;1341;23056;-32
2022/10/03 10:58:08;;;;;;;2.90;0.80;;;;;;;9.82;100.00;99475.81;100587;1341;24388;-35
2022/10/03 11:00:40;;;;;;;1.60;1.20;;;;;;;9.88;100.00;99486.55;100610;1339;22753;-33
2022/10/03 11:03:11;;;;;;;1.90;0.50;;;;;;;9.96;100.00;99478.89;100568;1333;23113;-32
2022/10/03 11:05:45;;;;;;;0.60;0.40;;;;;;;9.92;100.00;99479.90;100595;1331;22996;-36
2022/10/03 11:08:20;;;;;;;1.40;0.60;;;;;;;10.02;100.00;99475.11;100632;1341;22507;-35
2022/10/03 11:10:51;;;;;;;3.40;0.90;;;;;;;10.08;100.00;99473.89;100670;1341;22619;-35
2022/10/03 11:13:21;;;;;;;1.10;0.50;;;;;;;10.11;100.00;99464.73;100698;1341;24487;-36
2022/10/03 11:15:56;;;;;;;2.00;1.10;;;;;;;10.14;100.00;99470.03;100648;1341;25703;-33
2022/10/03 11:18:29;;;;;;;6.30;1.20;;;;;;;10.24;100.00;99465.92;100517;1341;22616;-36
2022/10/03 11:21:03;;;;;;;1.10;0.70;;;;;;;10.29;100.00;99457.27;100646;1337;23017;-34
2022/10/03 11:23:32;;;;;;;;;;;;;;;10.35;100.00;99454.60;100652;1341;24306;-32
2022/10/03 11:26:05;;;;;;;2.60;0.60;;;;;;;10.41;100.00;99444.86;100667;1341;22616;-34
2022/10/03 11:28:45;;;;;;;4.90;1.40;;;;;;;10.52;100.00;99424.00;100657;1341;22530;-35
2022/10/03 11:31:24;;;;;;;4.60;1.10;;;;;;;10.60;100.00;99408.40;100663;1338;23104;-36
2022/10/03 11:34:13;;;;;;;1.10;0.40;;;;;;;10.66;100.00;99396.83;100700;1336;22506;-34
2022/10/03 11:36:48;;;;;;;1.70;0.70;;;;;;;10.80;100.00;99399.22;100710;1340;24383;-34
2022/10/03 11:39:25;;;;;;;2.90;1.00;;;;;;;10.93;100.00;99401.35;100597;1341;23515;-36
2022/10/03 11:42:08;;;;;;;8.40;0.70;;;;;;;10.93;100.00;99402.20;100601;1341;22906;-34
2022/10/03 11:44:36;;;;;;;1.10;0.80;;;;;;;10.88;100.00;99407.73;100629;1341;22754;-37
2022/10/03 11:47:09;;;;;;;2.30;0.70;;;;;;;10.83;100.00;99404.29;100664;1333;23015;-39
2022/10/03 11:49:41;;;;;;;9.00;1.20;;;;;;;10.80;100.00;99400.84;100650;1333;22748;-33
2022/10/03 11:52:14;;;;;;;3.20;0.70;;;;;;;10.77;100.00;99394.40;100618;1341;22502;-33
2022/10/03 11:54:41;;;;;;;4.90;0.80;;;;;;;10.83;100.00;99398.08;100644;1334;25384;-34
2022/10/03 11:57:08;;;;;;;3.90;1.10;;;;;;;10.88;100.00;99393.23;100635;1333;22878;-33
2022/10/03 11:59:37;;;;;;;4.40;0.20;;;;;;;10.98;100.00;99386.67;100662;1333;22750;-35
2022/10/03 12:02:07;;;;;;;2.00;0.60;;;;;;;10.88;100.00;99382.69;100621;1340;22786;-33
2022/10/03 12:04:42;;;;;;;3.80;0.90;;;;;;;10.89;100.00;99380.30;100635;1333;22889;-37